createdAt,value
2018-10-09T00:00:04.764Z,0.00
2018-10-09T00:01:04.755Z,0.00
2018-10-09T00:02:04.742Z,0.00
2018-10-09T00:03:05.747Z,0.00
2018-10-09T00:04:04.719Z,0.00
2018-10-09T00:05:05.562Z,0.00
2018-10-09T00:06:04.920Z,0.00
2018-10-09T00:07:05.682Z,0.00
2018-10-09T00:08:04.682Z,0.00
2018-10-09T00:09:04.661Z,0.00
2018-10-09T00:10:04.658Z,0.00
2018-10-09T00:11:04.641Z,0.00
2018-10-09T00:12:05.566Z,0.00
2018-10-09T00:13:04.629Z,0.00
2018-10-09T00:14:04.604Z,0.00
2018-10-09T00:15:04.594Z,0.00
2018-10-09T00:16:04.582Z,0.00
2018-10-09T00:17:04.573Z,0.00
2018-10-09T00:18:07.566Z,0.00
2018-10-09T00:19:04.548Z,0.00
2018-10-09T00:21:41.494Z,0.00
2018-10-09T00:24:00.898Z,0.00
2018-10-09T00:26:39.653Z,0.00
2018-10-09T00:27:39.634Z,0.00
2018-10-09T00:28:39.623Z,0.00
2018-10-09T00:29:39.610Z,0.00
2018-10-09T00:30:39.600Z,0.00
2018-10-09T00:31:39.603Z,0.00
2018-10-09T00:32:39.578Z,0.00
2018-10-09T00:33:39.567Z,0.00
2018-10-09T00:34:39.555Z,0.00
2018-10-09T00:35:39.553Z,0.00
2018-10-09T00:36:39.554Z,0.00
2018-10-09T00:37:39.522Z,0.00
2018-10-09T00:38:39.510Z,0.00
2018-10-09T00:39:39.499Z,0.00
2018-10-09T00:40:39.488Z,0.00
2018-10-09T00:41:39.492Z,0.00
2018-10-09T00:42:39.466Z,0.00
2018-10-09T00:43:39.456Z,0.00
2018-10-09T00:44:39.446Z,0.00
2018-10-09T00:45:39.432Z,0.00
2018-10-09T00:46:39.432Z,0.00
2018-10-09T00:47:39.411Z,0.00
2018-10-09T00:48:39.399Z,0.00
2018-10-09T00:49:39.389Z,0.00
2018-10-09T00:50:39.376Z,0.00
2018-10-09T00:51:39.375Z,0.00
2018-10-09T00:52:39.356Z,0.00
2018-10-09T00:53:39.346Z,0.00
2018-10-09T00:54:39.332Z,0.00
2018-10-09T00:55:39.321Z,0.00
2018-10-09T00:56:39.320Z,0.00
2018-10-09T00:57:39.299Z,0.00
2018-10-09T00:58:39.290Z,0.00
2018-10-09T00:59:39.276Z,0.00
2018-10-09T01:00:39.266Z,0.00
2018-10-09T01:01:39.267Z,0.00
2018-10-09T01:02:39.245Z,0.00
2018-10-09T01:03:39.233Z,0.00
2018-10-09T01:04:39.224Z,0.00
2018-10-09T01:05:39.211Z,0.00
2018-10-09T01:06:39.218Z,0.00
2018-10-09T01:07:39.189Z,0.00
2018-10-09T01:08:39.176Z,0.00
2018-10-09T01:09:39.166Z,0.00
2018-10-09T01:10:39.157Z,0.00
2018-10-09T01:11:39.147Z,0.00
2018-10-09T01:12:39.145Z,0.00
2018-10-09T01:13:39.123Z,0.00
2018-10-09T01:14:39.110Z,0.00
2018-10-09T01:15:39.102Z,0.00
2018-10-09T01:16:39.091Z,0.00
2018-10-09T01:17:39.093Z,0.00
2018-10-09T01:18:39.065Z,0.00
2018-10-09T01:19:39.056Z,0.00
2018-10-09T01:20:39.046Z,0.00
2018-10-09T01:21:39.035Z,0.00
2018-10-09T01:22:39.032Z,0.00
2018-10-09T01:23:39.009Z,0.00
2018-10-09T01:24:38.998Z,0.00
2018-10-09T01:25:38.987Z,0.00
2018-10-09T01:26:38.973Z,0.00
2018-10-09T01:27:38.976Z,0.00
2018-10-09T01:28:38.970Z,0.00
2018-10-09T01:29:38.941Z,0.00
2018-10-09T01:30:38.972Z,0.00
2018-10-09T01:32:47.643Z,0.00
2018-10-09T01:33:47.624Z,0.00
2018-10-09T01:34:47.623Z,0.00
2018-10-09T01:35:47.632Z,0.00
2018-10-09T01:36:47.589Z,0.00
2018-10-09T01:37:47.580Z,0.00
2018-10-09T01:38:47.567Z,0.00
2018-10-09T01:45:31.648Z,0.00
2018-10-09T01:46:31.411Z,0.00
2018-10-09T01:47:31.383Z,0.00
2018-10-09T01:48:31.369Z,0.00
2018-10-09T01:49:31.360Z,0.00
2018-10-09T01:50:31.363Z,0.00
2018-10-09T01:51:31.339Z,0.00
2018-10-09T01:52:31.325Z,0.00
2018-10-09T01:53:31.314Z,0.00
2018-10-09T01:54:31.303Z,0.00
2018-10-09T01:55:31.301Z,0.00
2018-10-09T01:58:01.252Z,0.00
2018-10-09T01:58:40.006Z,0.00
2018-10-09T01:59:39.997Z,0.00
2018-10-09T02:00:39.993Z,0.00
2018-10-09T02:01:39.974Z,0.00
2018-10-09T02:02:39.981Z,0.00
2018-10-09T02:03:39.952Z,0.00
2018-10-09T02:05:58.009Z,0.00
2018-10-09T02:06:48.647Z,0.00
2018-10-09T02:07:48.650Z,0.00
2018-10-09T02:08:48.627Z,0.00
2018-10-09T02:09:48.611Z,0.00
2018-10-09T02:10:48.611Z,0.00
2018-10-09T02:11:48.589Z,0.00
2018-10-09T02:12:48.583Z,0.00
2018-10-09T02:13:48.572Z,0.00
2018-10-09T02:14:48.553Z,0.00
2018-10-09T02:15:48.552Z,0.00
2018-10-09T02:16:48.531Z,0.00
2018-10-09T02:17:48.528Z,0.00
2018-10-09T02:18:48.508Z,0.00
2018-10-09T02:19:48.496Z,0.00
2018-10-09T02:20:48.496Z,0.00
2018-10-09T02:21:48.472Z,0.00
2018-10-09T02:22:48.462Z,0.00
2018-10-09T02:23:48.451Z,0.00
2018-10-09T02:24:48.439Z,0.00
2018-10-09T02:25:48.438Z,0.00
2018-10-09T02:26:48.415Z,0.00
2018-10-09T02:27:48.408Z,0.00
2018-10-09T02:28:48.405Z,0.00
2018-10-09T02:29:48.389Z,0.00
2018-10-09T02:30:48.382Z,0.00
2018-10-09T02:31:48.358Z,0.00
2018-10-09T02:32:48.346Z,0.00
2018-10-09T02:33:48.337Z,0.00
2018-10-09T02:34:48.323Z,0.00
2018-10-09T02:35:48.315Z,0.00
2018-10-09T02:38:18.018Z,0.00
2018-10-09T06:32:55.652Z,636.00
2018-10-09T06:35:37.104Z,680.00
2018-10-09T06:36:04.344Z,700.00
2018-10-09T06:37:04.341Z,724.00
2018-10-09T06:38:04.316Z,748.00
2018-10-09T06:39:04.310Z,772.00
2018-10-09T06:40:04.305Z,792.00
2018-10-09T06:41:04.284Z,808.00
2018-10-09T06:42:04.271Z,824.00
2018-10-09T06:43:04.259Z,844.00
2018-10-09T06:44:04.254Z,856.00
2018-10-09T06:45:04.251Z,876.00
2018-10-09T06:46:04.227Z,892.00
2018-10-09T06:47:04.224Z,908.00
2018-10-09T06:48:04.203Z,924.00
2018-10-09T06:49:04.201Z,940.00
2018-10-09T06:50:04.186Z,956.00
2018-10-09T06:51:04.182Z,968.00
2018-10-09T06:52:04.164Z,984.00
2018-10-09T06:53:04.151Z,996.00
2018-10-09T06:54:04.345Z,1012.00
2018-10-09T06:55:04.126Z,1036.00
2018-10-09T06:56:04.129Z,1056.00
2018-10-09T06:57:04.106Z,1072.00
2018-10-09T06:58:04.091Z,1092.00
2018-10-09T06:59:04.080Z,1112.00
2018-10-09T07:00:04.123Z,1132.00
2018-10-09T07:01:53.175Z,888.00
2018-10-09T07:02:53.153Z,1192.00
2018-10-09T07:03:53.142Z,1204.00
2018-10-09T07:04:53.138Z,1216.00
2018-10-09T07:05:53.142Z,1240.00
2018-10-09T07:06:53.109Z,1260.00
2018-10-09T07:07:53.099Z,1280.00
2018-10-09T07:08:53.086Z,1300.00
2018-10-09T07:10:48.755Z,1296.00
2018-10-09T07:11:48.751Z,1328.00
2018-10-09T07:12:48.731Z,1348.00
2018-10-09T07:13:48.718Z,1352.00
2018-10-09T07:14:48.706Z,1364.00
2018-10-09T07:15:48.722Z,1376.00
2018-10-09T07:16:48.697Z,1392.00
2018-10-09T07:17:48.674Z,1404.00
2018-10-09T07:18:48.662Z,1408.00
2018-10-09T07:19:48.651Z,1424.00
2018-10-09T07:20:48.652Z,1432.00
2018-10-09T07:21:48.640Z,1436.00
2018-10-09T07:22:48.618Z,1448.00
2018-10-09T07:23:48.613Z,1452.00
2018-10-09T07:24:48.598Z,1480.00
2018-10-09T07:25:48.590Z,1488.00
2018-10-09T07:26:48.581Z,1456.00
2018-10-09T07:27:48.576Z,1420.00
2018-10-09T07:28:48.550Z,1444.00
2018-10-09T07:29:48.544Z,1456.00
2018-10-09T07:30:48.524Z,1492.00
2018-10-09T07:31:48.525Z,1520.00
2018-10-09T07:32:48.501Z,1524.00
2018-10-09T07:33:48.510Z,1528.00
2018-10-09T07:34:48.487Z,1528.00
2018-10-09T07:35:48.469Z,1540.00
2018-10-09T07:36:48.465Z,1540.00
2018-10-09T07:37:48.443Z,1556.00
2018-10-09T07:38:48.436Z,1560.00
2018-10-09T07:41:19.392Z,1548.00
2018-10-09T07:41:56.642Z,1564.00
2018-10-09T07:42:56.635Z,1584.00
2018-10-09T07:43:56.749Z,1596.00
2018-10-09T07:44:56.607Z,1608.00
2018-10-09T07:45:56.604Z,1616.00
2018-10-09T07:46:56.596Z,1628.00
2018-10-09T07:47:56.573Z,1656.00
2018-10-09T07:48:56.561Z,1696.00
2018-10-09T07:49:56.548Z,1732.00
2018-10-09T07:50:56.545Z,1764.00
2018-10-09T07:51:56.542Z,1792.00
2018-10-09T07:52:56.594Z,1812.00
2018-10-09T07:53:56.504Z,1816.00
2018-10-09T07:54:56.492Z,1820.00
2018-10-09T07:55:56.483Z,1832.00
2018-10-09T07:56:56.486Z,1856.00
2018-10-09T07:57:56.464Z,1892.00
2018-10-09T07:58:56.459Z,2000.00
2018-10-09T07:59:56.438Z,2416.00
2018-10-09T08:00:56.429Z,3112.00
2018-10-09T08:04:50.180Z,2356.00
2018-10-09T08:05:13.859Z,2184.00
2018-10-09T08:06:13.823Z,2208.00
2018-10-09T08:07:13.813Z,2288.00
2018-10-09T08:08:13.790Z,2360.00
2018-10-09T08:09:13.788Z,2364.00
2018-10-09T08:10:13.769Z,2440.00
2018-10-09T08:11:13.757Z,2628.00
2018-10-09T08:12:13.761Z,2560.00
2018-10-09T08:13:13.733Z,3072.00
2018-10-09T08:14:13.724Z,3660.00
2018-10-09T08:15:13.711Z,3632.00
2018-10-09T08:16:13.732Z,3140.00
2018-10-09T08:17:13.702Z,2916.00
2018-10-09T08:18:13.684Z,2808.00
2018-10-09T08:21:31.356Z,2400.00
2018-10-09T08:22:31.484Z,2272.00
2018-10-09T08:23:31.337Z,2296.00
2018-10-09T08:24:31.323Z,2412.00
2018-10-09T08:25:31.311Z,2536.00
2018-10-09T08:26:31.300Z,2704.00
2018-10-09T08:27:31.299Z,2972.00
2018-10-09T08:28:31.278Z,2840.00
2018-10-09T08:29:31.266Z,2416.00
2018-10-09T08:30:31.256Z,2352.00
2018-10-09T08:31:31.244Z,2400.00
2018-10-09T08:32:31.243Z,2436.00
2018-10-09T08:33:31.221Z,2456.00
2018-10-09T08:34:31.275Z,2580.00
2018-10-09T08:35:31.207Z,2668.00
2018-10-09T08:36:31.190Z,2772.00
2018-10-09T08:37:31.190Z,2908.00
2018-10-09T08:38:31.172Z,3176.00
2018-10-09T08:39:31.158Z,3428.00
2018-10-09T08:40:31.245Z,3528.00
2018-10-09T08:41:31.134Z,3332.00
2018-10-09T08:42:31.133Z,3160.00
2018-10-09T08:43:31.114Z,3024.00
2018-10-09T08:44:31.104Z,2916.00
2018-10-09T08:45:31.094Z,2944.00
2018-10-09T08:46:31.086Z,2936.00
2018-10-09T08:47:31.101Z,2972.00
2018-10-09T08:48:31.059Z,3000.00
2018-10-09T08:49:31.047Z,3072.00
2018-10-09T08:50:31.041Z,3024.00
2018-10-09T08:51:31.031Z,2960.00
2018-10-09T08:52:31.026Z,2944.00
2018-10-09T08:53:31.003Z,2964.00
2018-10-09T08:54:30.992Z,2972.00
2018-10-09T08:55:30.987Z,2976.00
2018-10-09T08:58:54.643Z,2660.00
2018-10-09T08:59:48.407Z,2764.00
2018-10-09T09:00:48.367Z,2860.00
2018-10-09T09:01:48.359Z,2920.00
2018-10-09T09:11:10.291Z,3152.00
2018-10-09T10:01:23.385Z,3952.00
2018-10-09T10:02:17.123Z,4080.00
2018-10-09T10:03:17.105Z,4200.00
2018-10-09T10:04:17.099Z,4352.00
2018-10-09T10:05:17.099Z,4376.00
2018-10-09T10:06:17.073Z,4496.00
2018-10-09T10:07:17.061Z,4696.00
2018-10-09T10:08:17.050Z,4980.00
2018-10-09T10:09:17.105Z,5072.00
2018-10-09T10:10:17.044Z,5028.00
2018-10-09T10:13:37.895Z,4508.00
2018-10-09T10:14:37.885Z,4540.00
2018-10-09T10:15:37.902Z,4768.00
2018-10-09T10:16:37.865Z,5244.00
2018-10-09T10:17:37.851Z,5896.00
2018-10-09T10:18:37.841Z,6008.00
2018-10-09T10:19:37.828Z,6352.00
2018-10-09T10:20:37.840Z,5668.00
2018-10-09T10:21:37.805Z,4964.00
2018-10-09T10:22:37.794Z,4800.00
2018-10-09T10:23:37.782Z,4888.00
2018-10-09T10:24:37.770Z,5076.00
2018-10-09T10:25:37.775Z,4968.00
2018-10-09T10:26:37.747Z,5132.00
2018-10-09T10:27:37.739Z,5276.00
2018-10-09T10:28:37.726Z,6288.00
2018-10-09T10:29:37.717Z,6680.00
2018-10-09T10:30:37.714Z,6248.00
2018-10-09T10:31:37.693Z,5224.00
2018-10-09T10:32:37.680Z,4452.00
2018-10-09T10:33:37.669Z,4484.00
2018-10-09T10:34:37.660Z,4612.00
2018-10-09T10:35:37.694Z,4712.00
2018-10-09T10:36:37.680Z,4852.00
2018-10-09T10:37:37.624Z,5080.00
2018-10-09T10:38:37.616Z,6604.00
2018-10-09T10:39:37.602Z,8536.00
2018-10-09T10:40:37.605Z,10176.00
2018-10-09T10:41:37.589Z,7588.00
2018-10-09T10:42:37.567Z,5532.00
2018-10-09T10:43:37.575Z,5200.00
2018-10-09T10:44:37.551Z,5184.00
2018-10-09T10:45:37.550Z,5272.00
2018-10-09T10:46:37.528Z,5232.00
2018-10-09T10:47:37.514Z,5000.00
2018-10-09T10:48:37.504Z,5112.00
2018-10-09T10:49:37.512Z,5168.00
2018-10-09T10:50:37.487Z,5060.00
2018-10-09T10:51:37.494Z,5092.00
2018-10-09T10:52:37.464Z,5292.00
2018-10-09T10:53:37.444Z,5220.00
2018-10-09T10:54:37.433Z,5108.00
2018-10-09T10:55:37.440Z,5012.00
2018-10-09T10:56:37.409Z,4992.00
2018-10-09T10:57:37.411Z,5400.00
2018-10-09T10:58:37.387Z,5396.00
2018-10-09T10:59:37.379Z,5192.00
2018-10-09T11:00:37.394Z,4968.00
2018-10-09T11:01:37.368Z,4928.00
2018-10-09T11:02:37.356Z,4768.00
2018-10-09T11:03:37.350Z,4924.00
2018-10-09T11:04:37.328Z,4800.00
2018-10-09T11:05:37.308Z,4640.00
2018-10-09T11:06:37.380Z,4820.00
2018-10-09T11:07:37.285Z,4952.00
2018-10-09T11:08:37.280Z,5376.00
2018-10-09T11:09:37.273Z,5540.00
2018-10-09T11:10:37.254Z,5332.00
2018-10-09T11:11:37.251Z,5204.00
2018-10-09T11:12:37.227Z,5608.00
2018-10-09T11:13:37.224Z,4628.00
2018-10-09T11:14:37.258Z,5152.00
2018-10-09T11:15:37.195Z,5212.00
2018-10-09T11:16:37.193Z,5064.00
2018-10-09T11:17:37.186Z,4208.00
2018-10-09T11:18:37.163Z,3708.00
2018-10-09T11:19:37.149Z,3532.00
2018-10-09T11:20:37.144Z,3648.00
2018-10-09T11:21:37.192Z,3648.00
2018-10-09T11:22:37.119Z,4824.00
2018-10-09T11:23:37.105Z,4308.00
2018-10-09T11:24:37.093Z,4180.00
2018-10-09T11:25:37.084Z,4276.00
2018-10-09T11:26:37.080Z,5400.00
2018-10-09T11:27:37.067Z,7244.00
2018-10-09T11:28:37.049Z,5640.00
2018-10-09T11:29:37.037Z,4572.00
2018-10-09T11:30:37.029Z,5316.00
2018-10-09T11:31:37.023Z,3784.00
2018-10-09T11:32:37.122Z,3716.00
2018-10-09T11:33:36.994Z,3476.00
2018-10-09T11:34:36.981Z,3472.00
2018-10-09T11:35:36.967Z,3716.00
2018-10-09T11:36:36.971Z,3872.00
2018-10-09T11:37:36.955Z,3940.00
2018-10-09T11:38:36.933Z,3968.00
2018-10-09T11:39:36.922Z,3936.00
2018-10-09T11:40:36.912Z,3820.00
2018-10-09T11:41:36.910Z,3924.00
2018-10-09T11:42:36.924Z,3836.00
2018-10-09T11:43:36.881Z,3528.00
2018-10-09T11:44:36.870Z,3576.00
2018-10-09T11:45:36.854Z,3992.00
2018-10-09T11:46:36.853Z,3972.00
2018-10-09T11:47:36.832Z,4112.00
2018-10-09T11:48:36.826Z,4076.00
2018-10-09T11:49:36.808Z,3624.00
2018-10-09T11:50:36.798Z,3548.00
2018-10-09T11:51:36.798Z,3532.00
2018-10-09T11:52:36.775Z,3492.00
2018-10-09T11:53:36.767Z,3352.00
2018-10-09T11:54:36.753Z,3336.00
2018-10-09T11:55:36.744Z,3396.00
2018-10-09T11:56:36.747Z,3380.00
2018-10-09T11:57:36.718Z,3420.00
2018-10-09T11:58:36.748Z,3416.00
2018-10-09T11:59:36.696Z,3452.00
2018-10-09T12:00:36.685Z,3416.00
2018-10-09T12:01:36.685Z,3388.00
2018-10-09T12:02:36.712Z,3344.00
2018-10-09T12:03:36.653Z,3264.00
2018-10-09T12:04:36.643Z,3384.00
2018-10-09T12:05:36.690Z,3692.00
2018-10-09T12:06:36.637Z,3312.00
2018-10-09T12:07:36.605Z,3432.00
2018-10-09T12:08:36.622Z,3492.00
2018-10-09T12:09:36.583Z,3624.00
2018-10-09T12:10:36.571Z,4308.00
2018-10-09T12:11:36.585Z,10120.00
2018-10-09T12:12:36.555Z,15520.00
2018-10-09T12:13:36.540Z,15392.00
2018-10-09T12:14:36.526Z,10896.00
2018-10-09T12:15:36.555Z,9300.00
2018-10-09T12:16:36.505Z,5676.00
2018-10-09T12:17:36.509Z,5600.00
2018-10-09T12:18:36.490Z,6500.00
2018-10-09T12:19:36.471Z,5112.00
2018-10-09T12:20:36.460Z,4120.00
2018-10-09T12:21:36.505Z,4464.00
2018-10-09T12:22:36.446Z,3616.00
2018-10-09T12:23:36.425Z,3368.00
2018-10-09T12:24:36.413Z,3328.00
2018-10-09T12:25:36.402Z,3260.00
2018-10-09T12:26:36.393Z,3316.00
2018-10-09T12:27:36.392Z,3496.00
2018-10-09T12:28:36.387Z,3496.00
2018-10-09T12:29:36.375Z,3524.00
2018-10-09T12:30:36.351Z,3908.00
2018-10-09T12:31:36.346Z,4664.00
2018-10-09T12:32:36.337Z,4280.00
2018-10-09T12:33:36.317Z,4392.00
2018-10-09T12:34:36.306Z,4368.00
2018-10-09T12:35:36.298Z,4536.00
2018-10-09T12:36:36.290Z,5060.00
2018-10-09T12:37:36.298Z,4996.00
2018-10-09T12:38:36.259Z,5792.00
2018-10-09T12:39:36.252Z,6640.00
2018-10-09T12:40:36.253Z,6772.00
2018-10-09T12:41:36.228Z,6700.00
2018-10-09T12:42:36.227Z,6628.00
2018-10-09T12:43:36.212Z,6028.00
2018-10-09T12:44:36.196Z,5676.00
2018-10-09T12:45:36.180Z,6084.00
2018-10-09T12:46:36.178Z,6156.00
2018-10-09T12:47:36.156Z,5528.00
2018-10-09T12:48:36.157Z,4648.00
2018-10-09T12:49:36.136Z,4388.00
2018-10-09T12:50:36.126Z,4628.00
2018-10-09T12:51:36.111Z,4588.00
2018-10-09T12:52:36.098Z,4628.00
2018-10-09T12:53:36.103Z,4676.00
2018-10-09T12:54:36.080Z,4684.00
2018-10-09T12:55:36.068Z,4680.00
2018-10-09T12:56:36.058Z,4712.00
2018-10-09T12:57:36.045Z,4692.00
2018-10-09T12:58:36.069Z,4596.00
2018-10-09T12:59:36.023Z,4592.00
2018-10-09T13:00:36.018Z,4524.00
2018-10-09T13:01:36.000Z,4504.00
2018-10-09T13:02:35.989Z,4448.00
2018-10-09T13:03:35.996Z,4432.00
2018-10-09T13:06:45.678Z,4484.00
2018-10-09T13:07:45.661Z,4656.00
2018-10-09T13:08:45.784Z,4684.00
2018-10-09T13:09:45.635Z,4596.00
2018-10-09T13:10:45.624Z,4584.00
2018-10-09T13:11:45.616Z,4548.00
2018-10-09T13:15:03.775Z,4332.00
2018-10-09T13:17:12.495Z,4084.00
2018-10-09T13:18:12.228Z,3996.00
2018-10-09T13:19:12.226Z,3892.00
2018-10-09T13:20:12.205Z,3772.00
2018-10-09T13:21:12.283Z,3668.00
2018-10-09T13:22:12.563Z,3552.00
2018-10-09T13:23:12.174Z,3480.00
2018-10-09T13:24:12.170Z,3440.00
2018-10-09T13:25:12.151Z,3332.00
2018-10-09T13:26:12.136Z,3280.00
2018-10-09T13:27:12.170Z,3168.00
2018-10-09T13:28:12.115Z,3004.00
2018-10-09T13:30:53.122Z,2752.00
2018-10-09T13:31:20.293Z,2612.00
2018-10-09T13:32:20.279Z,2504.00
2018-10-09T13:33:20.268Z,2432.00
2018-10-09T13:34:20.285Z,2372.00
2018-10-09T13:35:20.246Z,2356.00
2018-10-09T13:36:20.241Z,2348.00
2018-10-09T13:37:20.225Z,2332.00
2018-10-09T13:38:20.295Z,2376.00
2018-10-09T13:39:20.226Z,2372.00
2018-10-09T13:41:31.142Z,2424.00
2018-10-09T13:42:28.397Z,2464.00
2018-10-09T13:43:28.384Z,2504.00
2018-10-09T13:44:28.383Z,2500.00
2018-10-09T13:45:28.374Z,2508.00
2018-10-09T13:46:28.352Z,2392.00
2018-10-09T13:47:28.483Z,2360.00
2018-10-09T13:48:28.328Z,2240.00
2018-10-09T13:49:28.341Z,2272.00
2018-10-09T13:50:28.339Z,2344.00
2018-10-09T13:51:28.293Z,2340.00
2018-10-09T13:52:28.285Z,2244.00
2018-10-09T13:53:28.274Z,2136.00
2018-10-09T13:54:28.261Z,1980.00
2018-10-09T13:55:28.261Z,1940.00
2018-10-09T13:56:28.243Z,1776.00
2018-10-09T13:57:28.226Z,1652.00
2018-10-09T13:58:28.217Z,1620.00
2018-10-09T13:59:28.207Z,1552.00
2018-10-09T14:01:48.647Z,1564.00
2018-10-09T14:04:12.336Z,1592.00
2018-10-09T14:04:44.588Z,1624.00
2018-10-09T14:08:01.014Z,1560.00
2018-10-09T14:09:00.973Z,1536.00
2018-10-09T14:10:00.962Z,1520.00
2018-10-09T14:11:00.963Z,1520.00
2018-10-09T14:12:00.936Z,1596.00
2018-10-09T14:13:00.925Z,1712.00
2018-10-09T14:15:49.885Z,1852.00
2018-10-09T14:16:09.136Z,1892.00
2018-10-09T14:17:09.111Z,1932.00
2018-10-09T14:18:09.092Z,1948.00
2018-10-09T14:19:09.078Z,1988.00
2018-10-09T14:20:09.078Z,1972.00
2018-10-09T14:21:09.057Z,1916.00
2018-10-09T14:22:09.048Z,1852.00
2018-10-09T14:23:09.090Z,1796.00
2018-10-09T14:24:09.023Z,1672.00
2018-10-09T14:25:09.035Z,1608.00
2018-10-09T14:26:09.002Z,1552.00
2018-10-09T14:27:08.989Z,1572.00
2018-10-09T14:28:08.978Z,1608.00
2018-10-09T14:29:08.965Z,1680.00
2018-10-09T14:30:08.957Z,1744.00
2018-10-09T14:31:08.956Z,1732.00
2018-10-09T14:32:08.943Z,1672.00
2018-10-09T14:33:08.922Z,1560.00
2018-10-09T14:34:08.910Z,1516.00
2018-10-09T14:35:08.899Z,1448.00
2018-10-09T14:36:08.908Z,1412.00
2018-10-09T14:37:08.880Z,1356.00
2018-10-09T14:38:08.865Z,1272.00
2018-10-09T14:39:08.854Z,1236.00
2018-10-09T14:40:08.843Z,1172.00
2018-10-09T14:41:08.843Z,1152.00
2018-10-09T14:42:08.821Z,1104.00
2018-10-09T14:43:08.809Z,1100.00
2018-10-09T14:44:08.831Z,1080.00
2018-10-09T14:45:08.788Z,1060.00
2018-10-09T14:46:08.789Z,1052.00
2018-10-09T14:47:08.770Z,1036.00
2018-10-09T14:48:08.755Z,1008.00
2018-10-09T14:49:08.751Z,972.00
2018-10-09T14:50:08.733Z,976.00
2018-10-09T14:51:08.734Z,956.00
2018-10-09T14:52:08.711Z,956.00
2018-10-09T14:53:08.699Z,936.00
2018-10-09T14:54:08.692Z,932.00
2018-10-09T14:55:08.677Z,924.00
2018-10-09T14:56:08.677Z,924.00
2018-10-09T14:57:08.656Z,960.00
2018-10-09T14:58:08.645Z,1020.00
2018-10-09T14:59:08.633Z,1100.00
2018-10-09T15:00:08.623Z,1132.00
2018-10-09T15:01:08.620Z,1184.00
2018-10-09T15:02:08.602Z,1244.00
2018-10-09T15:03:08.641Z,1240.00
2018-10-09T15:04:08.578Z,1240.00
2018-10-09T15:05:08.567Z,1204.00
2018-10-09T15:06:08.564Z,1152.00
2018-10-09T15:07:08.549Z,1120.00
2018-10-09T15:08:08.534Z,1060.00
2018-10-09T15:09:08.531Z,1016.00
2018-10-09T15:10:08.517Z,996.00
2018-10-09T15:11:08.522Z,972.00
2018-10-09T15:12:08.489Z,960.00
2018-10-09T15:13:08.477Z,944.00
2018-10-09T15:14:08.467Z,932.00
2018-10-09T15:15:08.457Z,924.00
2018-10-09T15:16:08.458Z,928.00
2018-10-09T15:17:08.528Z,932.00
2018-10-09T15:18:08.421Z,956.00
2018-10-09T15:19:08.415Z,948.00
2018-10-09T15:20:08.409Z,952.00
2018-10-09T15:21:08.416Z,952.00
2018-10-09T15:22:08.377Z,928.00
2018-10-09T15:23:08.367Z,912.00
2018-10-09T15:24:08.355Z,888.00
2018-10-09T15:25:08.344Z,860.00
2018-10-09T15:26:08.338Z,820.00
2018-10-09T15:27:08.332Z,808.00
2018-10-09T15:28:08.310Z,776.00
2018-10-09T15:29:08.396Z,760.00
2018-10-09T15:30:08.288Z,728.00
2018-10-09T15:31:08.276Z,708.00
2018-10-09T15:32:08.277Z,708.00
2018-10-09T15:33:08.256Z,700.00
2018-10-09T15:34:08.244Z,696.00
2018-10-09T15:35:08.234Z,680.00
2018-10-09T15:36:08.222Z,676.00
2018-10-09T15:37:08.223Z,668.00
2018-10-09T15:38:08.200Z,664.00
2018-10-09T15:39:08.193Z,660.00
2018-10-09T15:40:08.177Z,648.00
2018-10-09T15:41:08.194Z,648.00
2018-10-09T15:42:08.191Z,644.00
2018-10-09T15:43:08.145Z,632.00
2018-10-09T15:44:08.134Z,624.00
2018-10-09T15:45:08.123Z,612.00
2018-10-09T15:46:08.111Z,608.00
2018-10-09T15:47:08.128Z,588.00
2018-10-09T15:48:08.090Z,572.00
2018-10-09T15:49:08.084Z,560.00
2018-10-09T15:50:08.067Z,548.00
2018-10-09T15:51:08.057Z,536.00
2018-10-09T15:52:08.057Z,524.00
2018-10-09T15:53:08.036Z,512.00
2018-10-09T15:54:08.026Z,500.00
2018-10-09T15:55:08.013Z,488.00
2018-10-09T15:56:08.003Z,480.00
2018-10-09T15:57:08.000Z,472.00
2018-10-09T15:58:07.979Z,464.00
2018-10-09T15:59:07.969Z,460.00
2018-10-09T16:00:07.957Z,460.00
2018-10-09T16:01:07.946Z,440.00
2018-10-09T16:02:07.945Z,436.00
2018-10-09T16:03:07.935Z,424.00
2018-10-09T16:04:08.007Z,416.00
2018-10-09T16:05:07.902Z,408.00
2018-10-09T16:07:32.364Z,388.00
2018-10-09T16:08:16.119Z,376.00
2018-10-09T16:09:16.089Z,376.00
2018-10-09T16:10:16.077Z,364.00
2018-10-09T16:11:16.083Z,360.00
2018-10-09T16:12:16.066Z,352.00
2018-10-09T16:13:16.042Z,340.00
2018-10-09T16:14:16.030Z,332.00
2018-10-09T16:15:16.023Z,320.00
2018-10-09T16:16:16.009Z,308.00
2018-10-09T16:17:16.012Z,296.00
2018-10-09T16:18:15.987Z,288.00
2018-10-09T16:19:15.976Z,272.00
2018-10-09T16:20:15.972Z,264.00
2018-10-09T16:21:15.958Z,252.00
2018-10-09T16:22:15.959Z,244.00
2018-10-09T16:23:15.929Z,228.00
2018-10-09T16:24:15.918Z,216.00
2018-10-09T16:25:15.907Z,208.00
2018-10-09T16:26:15.900Z,196.00
2018-10-09T16:28:26.342Z,180.00
2018-10-09T16:29:24.077Z,176.00
2018-10-09T16:30:24.065Z,168.00
2018-10-09T16:31:24.052Z,160.00
2018-10-09T16:32:24.134Z,152.00
2018-10-09T16:33:24.033Z,144.00
2018-10-09T16:34:24.018Z,136.00
2018-10-09T16:35:24.008Z,128.00
2018-10-09T16:36:24.000Z,116.00
2018-10-09T16:37:23.997Z,104.00
2018-10-09T16:38:23.976Z,100.00
2018-10-09T16:39:23.964Z,92.00
2018-10-09T16:40:24.012Z,84.00
2018-10-09T16:41:23.939Z,76.00
2018-10-09T16:42:23.937Z,72.00
2018-10-09T16:43:23.927Z,64.00
2018-10-09T16:44:23.907Z,60.00
2018-10-09T16:45:23.893Z,52.00
2018-10-09T16:46:23.884Z,48.00
2018-10-09T16:47:23.903Z,44.00
2018-10-09T16:48:23.872Z,40.00
2018-10-09T16:49:23.849Z,36.00
2018-10-09T16:50:23.837Z,32.00
2018-10-09T16:51:23.826Z,32.00
2018-10-09T16:52:23.814Z,24.00
2018-10-09T16:53:23.902Z,24.00
2018-10-09T16:54:23.832Z,20.00
2018-10-09T16:55:23.780Z,20.00
2018-10-09T16:56:23.774Z,16.00
2018-10-09T16:57:23.758Z,12.00
2018-10-09T16:58:23.756Z,16.00
2018-10-09T16:59:23.738Z,12.00
2018-10-09T17:00:23.759Z,8.00
2018-10-09T17:01:23.713Z,8.00
2018-10-09T17:02:23.701Z,8.00
2018-10-09T17:03:23.701Z,8.00
2018-10-09T17:04:23.683Z,4.00
2018-10-09T17:05:23.667Z,4.00
2018-10-09T17:06:23.656Z,4.00
2018-10-09T17:07:23.656Z,4.00
2018-10-09T17:08:23.642Z,0.00
2018-10-09T17:09:23.622Z,0.00
2018-10-09T17:10:23.613Z,0.00
2018-10-09T17:11:23.598Z,0.00
2018-10-09T17:12:23.589Z,0.00
2018-10-09T17:13:23.587Z,4.00
2018-10-09T17:14:23.565Z,0.00
2018-10-09T17:15:23.666Z,0.00
2018-10-09T17:16:23.541Z,0.00
2018-10-09T17:17:23.533Z,0.00
2018-10-09T17:20:39.927Z,0.00
2018-10-09T17:21:39.917Z,0.00
2018-10-09T17:24:20.872Z,0.00
2018-10-09T17:24:48.100Z,0.00
2018-10-09T17:25:48.088Z,0.00
2018-10-09T17:26:48.155Z,0.00
2018-10-09T17:27:48.068Z,0.00
2018-10-09T17:28:48.065Z,0.00
2018-10-09T17:29:48.048Z,0.00
2018-10-09T17:30:48.035Z,0.00
2018-10-09T17:31:48.024Z,0.00
2018-10-09T17:32:48.021Z,0.00
2018-10-09T17:33:48.012Z,0.00
2018-10-09T17:34:47.988Z,0.00
2018-10-09T17:35:47.977Z,0.00
2018-10-09T17:36:47.966Z,0.00
2018-10-09T17:37:47.960Z,0.00
2018-10-09T17:38:47.959Z,0.00
2018-10-09T17:39:47.932Z,0.00
2018-10-09T17:40:47.920Z,0.00
2018-10-09T17:41:47.911Z,0.00
2018-10-09T17:42:47.899Z,0.00
2018-10-09T17:43:47.901Z,0.00
2018-10-09T17:44:47.876Z,0.00
2018-10-09T17:45:47.865Z,0.00
2018-10-09T17:46:47.899Z,0.00
2018-10-09T17:51:53.234Z,0.00
2018-10-09T17:52:12.473Z,0.00
2018-10-09T17:53:12.457Z,0.00
2018-10-09T17:54:12.459Z,0.00
2018-10-09T17:55:12.471Z,0.00
2018-10-09T17:56:12.425Z,0.00
2018-10-09T17:57:12.414Z,0.00
2018-10-09T17:58:12.402Z,0.00
2018-10-09T18:00:39.947Z,0.00
2018-10-09T18:01:21.579Z,0.00
2018-10-09T18:02:21.564Z,0.00
2018-10-09T18:03:21.607Z,0.00
2018-10-09T18:04:21.558Z,0.00
2018-10-09T18:05:21.532Z,0.00
2018-10-09T18:08:37.984Z,0.00
2018-10-09T18:09:37.955Z,0.00
2018-10-09T18:10:37.935Z,0.00
2018-10-09T18:11:37.924Z,0.00
2018-10-09T18:12:37.940Z,0.00
2018-10-09T18:13:37.901Z,0.00
2018-10-09T18:14:37.931Z,0.00